sensor_id;sensor_type;location;lat;lon;timestamp;temperature;humidity
44833;DHT22;30569;51.252;9.830;2023-12-20T00:00:25;4.10;99.90
44833;DHT22;30569;51.252;9.830;2023-12-20T00:02:51;4.10;99.90
44833;DHT22;30569;51.252;9.830;2023-12-20T00:05:16;4.20;99.90
44833;DHT22;30569;51.252;9.830;2023-12-20T00:10:08;4.00;99.90
44833;DHT22;30569;51.252;9.830;2023-12-20T00:12:33;4.10;99.90
44833;DHT22;30569;51.252;9.830;2023-12-20T00:14:59;4.00;99.90
44833;DHT22;30569;51.252;9.830;2023-12-20T00:17:25;4.30;99.90
44833;DHT22;30569;51.252;9.830;2023-12-20T00:19:50;4.40;99.90
44833;DHT22;30569;51.252;9.830;2023-12-20T00:22:16;4.20;99.90
44833;DHT22;30569;51.252;9.830;2023-12-20T00:24:41;4.10;99.90
44833;DHT22;30569;51.252;9.830;2023-12-20T00:27:07;4.60;99.90
44833;DHT22;30569;51.252;9.830;2023-12-20T00:29:32;4.60;99.90
44833;DHT22;30569;51.252;9.830;2023-12-20T00:31:58;4.00;99.90
44833;DHT22;30569;51.252;9.830;2023-12-20T00:34:23;4.40;99.90
44833;DHT22;30569;51.252;9.830;2023-12-20T00:36:49;4.10;99.90
44833;DHT22;30569;51.252;9.830;2023-12-20T00:39:15;4.10;99.90
44833;DHT22;30569;51.252;9.830;2023-12-20T00:41:40;4.40;99.90
44833;DHT22;30569;51.252;9.830;2023-12-20T00:46:32;4.20;99.90
44833;DHT22;30569;51.252;9.830;2023-12-20T00:48:57;4.20;99.90
44833;DHT22;30569;51.252;9.830;2023-12-20T00:51:23;4.30;99.90
44833;DHT22;30569;51.252;9.830;2023-12-20T00:53:50;4.30;99.90
44833;DHT22;30569;51.252;9.830;2023-12-20T00:56:15;4.20;99.90
44833;DHT22;30569;51.252;9.830;2023-12-20T00:58:41;4.40;99.90
44833;DHT22;30569;51.252;9.830;2023-12-20T01:01:07;4.20;99.90
44833;DHT22;30569;51.252;9.830;2023-12-20T01:03:32;4.30;99.90
44833;DHT22;30569;51.252;9.830;2023-12-20T01:05:58;4.30;99.90
44833;DHT22;30569;51.252;9.830;2023-12-20T01:10:49;4.30;99.90
44833;DHT22;30569;51.252;9.830;2023-12-20T01:15:41;4.50;99.90
44833;DHT22;30569;51.252;9.830;2023-12-20T01:18:07;4.40;99.90
44833;DHT22;30569;51.252;9.830;2023-12-20T01:20:32;4.30;99.90
44833;DHT22;30569;51.252;9.830;2023-12-20T01:25:24;4.60;99.90
44833;DHT22;30569;51.252;9.830;2023-12-20T01:27:50;4.50;99.90
44833;DHT22;30569;51.252;9.830;2023-12-20T01:30:15;4.90;99.90
44833;DHT22;30569;51.252;9.830;2023-12-20T01:32:41;4.70;99.90
44833;DHT22;30569;51.252;9.830;2023-12-20T01:35:07;4.40;99.90
44833;DHT22;30569;51.252;9.830;2023-12-20T01:37:32;4.60;99.90
44833;DHT22;30569;51.252;9.830;2023-12-20T01:39:58;4.50;99.90
44833;DHT22;30569;51.252;9.830;2023-12-20T01:44:50;4.90;99.90
44833;DHT22;30569;51.252;9.830;2023-12-20T01:47:16;5.00;99.90
44833;DHT22;30569;51.252;9.830;2023-12-20T01:49:41;5.10;99.90
44833;DHT22;30569;51.252;9.830;2023-12-20T01:52:07;4.70;99.90
44833;DHT22;30569;51.252;9.830;2023-12-20T01:54:34;5.20;99.90
44833;DHT22;30569;51.252;9.830;2023-12-20T01:57:01;5.10;99.90
44833;DHT22;30569;51.252;9.830;2023-12-20T01:59:28;4.50;99.90
44833;DHT22;30569;51.252;9.830;2023-12-20T02:04:20;4.40;99.90
44833;DHT22;30569;51.252;9.830;2023-12-20T02:06:46;4.50;99.90
44833;DHT22;30569;51.252;9.830;2023-12-20T02:09:12;4.60;99.90
44833;DHT22;30569;51.252;9.830;2023-12-20T02:11:38;4.60;99.90
44833;DHT22;30569;51.252;9.830;2023-12-20T02:14:04;4.70;99.90
44833;DHT22;30569;51.252;9.830;2023-12-20T02:16:30;4.60;99.90
44833;DHT22;30569;51.252;9.830;2023-12-20T02:18:56;4.60;99.90
44833;DHT22;30569;51.252;9.830;2023-12-20T02:21:33;4.70;99.90
44833;DHT22;30569;51.252;9.830;2023-12-20T02:26:26;4.70;99.90
44833;DHT22;30569;51.252;9.830;2023-12-20T02:28:52;5.50;99.90
44833;DHT22;30569;51.252;9.830;2023-12-20T02:31:21;5.40;99.90
44833;DHT22;30569;51.252;9.830;2023-12-20T02:33:47;5.40;99.90
44833;DHT22;30569;51.252;9.830;2023-12-20T02:36:13;6.10;99.90
44833;DHT22;30569;51.252;9.830;2023-12-20T02:38:38;6.30;99.90
44833;DHT22;30569;51.252;9.830;2023-12-20T02:41:04;7.50;99.90
44833;DHT22;30569;51.252;9.830;2023-12-20T02:43:29;6.60;99.90
44833;DHT22;30569;51.252;9.830;2023-12-20T02:45:55;6.70;99.90
44833;DHT22;30569;51.252;9.830;2023-12-20T02:48:21;6.70;99.90
44833;DHT22;30569;51.252;9.830;2023-12-20T02:50:47;6.70;99.90
44833;DHT22;30569;51.252;9.830;2023-12-20T02:53:14;6.70;99.90
44833;DHT22;30569;51.252;9.830;2023-12-20T02:55:40;6.40;99.90
44833;DHT22;30569;51.252;9.830;2023-12-20T02:58:05;6.30;99.90
44833;DHT22;30569;51.252;9.830;2023-12-20T03:00:31;6.40;99.90
44833;DHT22;30569;51.252;9.830;2023-12-20T03:02:56;6.60;99.90
44833;DHT22;30569;51.252;9.830;2023-12-20T03:05:22;6.70;99.90
44833;DHT22;30569;51.252;9.830;2023-12-20T03:07:48;6.50;99.90
44833;DHT22;30569;51.252;9.830;2023-12-20T03:10:13;6.40;99.90
44833;DHT22;30569;51.252;9.830;2023-12-20T03:12:39;6.20;99.90
44833;DHT22;30569;51.252;9.830;2023-12-20T03:15:05;6.30;99.90
44833;DHT22;30569;51.252;9.830;2023-12-20T03:17:30;6.50;99.90
44833;DHT22;30569;51.252;9.830;2023-12-20T03:19:56;7.90;99.90
44833;DHT22;30569;51.252;9.830;2023-12-20T03:22:22;6.70;99.90
44833;DHT22;30569;51.252;9.830;2023-12-20T03:24:47;6.70;99.90
44833;DHT22;30569;51.252;9.830;2023-12-20T03:27:13;6.60;99.90
44833;DHT22;30569;51.252;9.830;2023-12-20T03:29:38;6.50;99.90
44833;DHT22;30569;51.252;9.830;2023-12-20T03:32:04;6.80;99.90
44833;DHT22;30569;51.252;9.830;2023-12-20T03:34:30;6.90;99.90
44833;DHT22;30569;51.252;9.830;2023-12-20T03:36:55;6.60;99.90
44833;DHT22;30569;51.252;9.830;2023-12-20T03:39:21;6.50;99.90
44833;DHT22;30569;51.252;9.830;2023-12-20T03:41:47;6.20;99.90
44833;DHT22;30569;51.252;9.830;2023-12-20T03:44:12;5.90;99.90
44833;DHT22;30569;51.252;9.830;2023-12-20T03:46:38;6.10;99.90
44833;DHT22;30569;51.252;9.830;2023-12-20T03:49:04;6.00;99.90
44833;DHT22;30569;51.252;9.830;2023-12-20T03:51:30;6.00;99.90
44833;DHT22;30569;51.252;9.830;2023-12-20T03:53:55;6.50;99.90
44833;DHT22;30569;51.252;9.830;2023-12-20T04:06:06;5.90;99.90
44833;DHT22;30569;51.252;9.830;2023-12-20T04:08:31;5.60;99.90
44833;DHT22;30569;51.252;9.830;2023-12-20T04:10:57;5.90;99.90
44833;DHT22;30569;51.252;9.830;2023-12-20T04:13:22;6.10;99.90
44833;DHT22;30569;51.252;9.830;2023-12-20T04:18:16;5.90;99.90
44833;DHT22;30569;51.252;9.830;2023-12-20T04:20:41;6.20;99.90
44833;DHT22;30569;51.252;9.830;2023-12-20T04:23:07;6.40;99.90
44833;DHT22;30569;51.252;9.830;2023-12-20T04:25:33;6.10;99.90
44833;DHT22;30569;51.252;9.830;2023-12-20T04:27:58;5.70;99.90
44833;DHT22;30569;51.252;9.830;2023-12-20T04:30:24;6.00;99.90
44833;DHT22;30569;51.252;9.830;2023-12-20T04:32:49;6.30;99.90
44833;DHT22;30569;51.252;9.830;2023-12-20T04:35:15;6.20;99.90
44833;DHT22;30569;51.252;9.830;2023-12-20T04:37:40;6.20;99.90
44833;DHT22;30569;51.252;9.830;2023-12-20T04:40:06;6.50;99.90
44833;DHT22;30569;51.252;9.830;2023-12-20T04:42:33;5.90;99.90
44833;DHT22;30569;51.252;9.830;2023-12-20T04:44:59;5.70;99.90
44833;DHT22;30569;51.252;9.830;2023-12-20T04:47:24;6.00;99.90
44833;DHT22;30569;51.252;9.830;2023-12-20T04:49:50;6.30;99.90
44833;DHT22;30569;51.252;9.830;2023-12-20T04:52:15;5.70;99.90
44833;DHT22;30569;51.252;9.830;2023-12-20T04:54:41;5.40;99.90
44833;DHT22;30569;51.252;9.830;2023-12-20T04:57:06;5.40;99.90
44833;DHT22;30569;51.252;9.830;2023-12-20T04:59:32;5.60;99.90
44833;DHT22;30569;51.252;9.830;2023-12-20T05:01:58;5.50;99.90
44833;DHT22;30569;51.252;9.830;2023-12-20T05:04:23;5.60;99.90
44833;DHT22;30569;51.252;9.830;2023-12-20T05:06:49;5.10;99.90
44833;DHT22;30569;51.252;9.830;2023-12-20T05:09:15;4.70;99.90
44833;DHT22;30569;51.252;9.830;2023-12-20T05:11:41;5.10;99.90
44833;DHT22;30569;51.252;9.830;2023-12-20T05:14:07;5.40;99.90
44833;DHT22;30569;51.252;9.830;2023-12-20T05:16:32;5.60;99.90
44833;DHT22;30569;51.252;9.830;2023-12-20T05:18:58;5.60;99.90
44833;DHT22;30569;51.252;9.830;2023-12-20T05:21:26;5.50;99.90
44833;DHT22;30569;51.252;9.830;2023-12-20T05:23:52;4.60;99.90
44833;DHT22;30569;51.252;9.830;2023-12-20T05:26:17;4.40;99.90
44833;DHT22;30569;51.252;9.830;2023-12-20T05:28:43;4.60;99.90
44833;DHT22;30569;51.252;9.830;2023-12-20T05:33:35;4.60;99.90
44833;DHT22;30569;51.252;9.830;2023-12-20T05:36:00;4.90;99.90
44833;DHT22;30569;51.252;9.830;2023-12-20T05:38:26;4.50;99.90
44833;DHT22;30569;51.252;9.830;2023-12-20T05:43:17;4.60;99.90
44833;DHT22;30569;51.252;9.830;2023-12-20T05:45:43;4.70;99.90
44833;DHT22;30569;51.252;9.830;2023-12-20T05:48:08;4.60;99.90
44833;DHT22;30569;51.252;9.830;2023-12-20T05:50:34;4.30;99.90
44833;DHT22;30569;51.252;9.830;2023-12-20T05:53:00;4.20;99.90
44833;DHT22;30569;51.252;9.830;2023-12-20T05:55:26;4.20;99.90
44833;DHT22;30569;51.252;9.830;2023-12-20T05:57:51;4.00;99.90
44833;DHT22;30569;51.252;9.830;2023-12-20T06:00:17;4.00;99.90
44833;DHT22;30569;51.252;9.830;2023-12-20T06:02:43;4.30;99.90
44833;DHT22;30569;51.252;9.830;2023-12-20T06:07:35;4.50;99.90
44833;DHT22;30569;51.252;9.830;2023-12-20T06:10:01;4.50;99.90
44833;DHT22;30569;51.252;9.830;2023-12-20T06:12:27;3.90;99.90
44833;DHT22;30569;51.252;9.830;2023-12-20T06:17:20;3.80;99.90
44833;DHT22;30569;51.252;9.830;2023-12-20T06:19:46;3.80;99.90
44833;DHT22;30569;51.252;9.830;2023-12-20T06:22:14;4.20;99.90
44833;DHT22;30569;51.252;9.830;2023-12-20T06:24:39;4.00;99.90
44833;DHT22;30569;51.252;9.830;2023-12-20T06:27:05;3.90;99.90
44833;DHT22;30569;51.252;9.830;2023-12-20T06:29:31;4.00;99.90
44833;DHT22;30569;51.252;9.830;2023-12-20T06:31:56;4.10;99.90
44833;DHT22;30569;51.252;9.830;2023-12-20T06:34:22;3.80;99.90
44833;DHT22;30569;51.252;9.830;2023-12-20T06:36:47;4.10;99.90
44833;DHT22;30569;51.252;9.830;2023-12-20T06:39:13;4.20;99.90
44833;DHT22;30569;51.252;9.830;2023-12-20T06:44:05;3.70;99.90
44833;DHT22;30569;51.252;9.830;2023-12-20T06:46:31;3.60;99.90
44833;DHT22;30569;51.252;9.830;2023-12-20T06:48:56;3.60;99.90
44833;DHT22;30569;51.252;9.830;2023-12-20T06:51:22;3.60;99.90
44833;DHT22;30569;51.252;9.830;2023-12-20T06:53:53;3.70;99.90
44833;DHT22;30569;51.252;9.830;2023-12-20T06:56:19;4.00;99.90
44833;DHT22;30569;51.252;9.830;2023-12-20T07:01:15;4.50;99.90
44833;DHT22;30569;51.252;9.830;2023-12-20T07:03:41;3.90;99.90
44833;DHT22;30569;51.252;9.830;2023-12-20T07:06:07;3.80;99.90
44833;DHT22;30569;51.252;9.830;2023-12-20T07:08:33;3.90;99.90
44833;DHT22;30569;51.252;9.830;2023-12-20T07:10:58;3.70;99.90
44833;DHT22;30569;51.252;9.830;2023-12-20T07:18:16;3.60;99.90
44833;DHT22;30569;51.252;9.830;2023-12-20T07:20:42;3.60;99.90
44833;DHT22;30569;51.252;9.830;2023-12-20T07:23:08;3.70;99.90
44833;DHT22;30569;51.252;9.830;2023-12-20T07:25:34;4.00;99.90
44833;DHT22;30569;51.252;9.830;2023-12-20T07:28:00;3.90;99.90
44833;DHT22;30569;51.252;9.830;2023-12-20T07:30:25;3.90;99.90
44833;DHT22;30569;51.252;9.830;2023-12-20T07:35:17;4.10;99.90
44833;DHT22;30569;51.252;9.830;2023-12-20T07:37:43;3.60;99.90
44833;DHT22;30569;51.252;9.830;2023-12-20T07:40:09;3.80;99.90
44833;DHT22;30569;51.252;9.830;2023-12-20T07:42:35;3.80;99.90
44833;DHT22;30569;51.252;9.830;2023-12-20T07:45:01;4.00;99.90
44833;DHT22;30569;51.252;9.830;2023-12-20T07:47:26;4.00;99.90
44833;DHT22;30569;51.252;9.830;2023-12-20T07:49:52;3.80;99.90
44833;DHT22;30569;51.252;9.830;2023-12-20T07:54:44;4.20;99.90
44833;DHT22;30569;51.252;9.830;2023-12-20T07:57:11;4.10;99.90
44833;DHT22;30569;51.252;9.830;2023-12-20T07:59:36;4.00;99.90
44833;DHT22;30569;51.252;9.830;2023-12-20T08:04:28;4.40;99.90
44833;DHT22;30569;51.252;9.830;2023-12-20T08:06:54;4.10;99.90
44833;DHT22;30569;51.252;9.830;2023-12-20T08:09:19;4.30;99.90
44833;DHT22;30569;51.252;9.830;2023-12-20T08:11:46;4.20;99.90
44833;DHT22;30569;51.252;9.830;2023-12-20T08:14:12;4.10;99.90
44833;DHT22;30569;51.252;9.830;2023-12-20T08:16:37;4.40;99.90
44833;DHT22;30569;51.252;9.830;2023-12-20T08:21:29;4.10;99.90
44833;DHT22;30569;51.252;9.830;2023-12-20T08:23:55;4.20;99.90
44833;DHT22;30569;51.252;9.830;2023-12-20T08:26:21;4.50;99.90
44833;DHT22;30569;51.252;9.830;2023-12-20T08:31:15;4.10;99.90
44833;DHT22;30569;51.252;9.830;2023-12-20T08:33:45;4.20;99.90
44833;DHT22;30569;51.252;9.830;2023-12-20T08:36:11;4.30;99.90
44833;DHT22;30569;51.252;9.830;2023-12-20T08:38:37;4.30;99.90
44833;DHT22;30569;51.252;9.830;2023-12-20T08:41:02;4.60;99.90
44833;DHT22;30569;51.252;9.830;2023-12-20T08:43:31;4.50;99.90
44833;DHT22;30569;51.252;9.830;2023-12-20T08:45:56;4.70;99.90
44833;DHT22;30569;51.252;9.830;2023-12-20T08:53:15;5.00;99.90
44833;DHT22;30569;51.252;9.830;2023-12-20T08:58:08;4.60;99.90
44833;DHT22;30569;51.252;9.830;2023-12-20T09:03:01;4.80;99.90
44833;DHT22;30569;51.252;9.830;2023-12-20T09:07:53;4.80;99.90
44833;DHT22;30569;51.252;9.830;2023-12-20T09:10:18;4.70;99.90
44833;DHT22;30569;51.252;9.830;2023-12-20T09:12:49;4.80;99.90
44833;DHT22;30569;51.252;9.830;2023-12-20T09:15:14;4.80;99.90
44833;DHT22;30569;51.252;9.830;2023-12-20T09:17:40;5.20;99.90
44833;DHT22;30569;51.252;9.830;2023-12-20T09:22:34;4.90;99.90
44833;DHT22;30569;51.252;9.830;2023-12-20T09:24:59;5.00;99.90
44833;DHT22;30569;51.252;9.830;2023-12-20T09:27:25;5.20;99.90
44833;DHT22;30569;51.252;9.830;2023-12-20T09:29:51;5.00;99.90
44833;DHT22;30569;51.252;9.830;2023-12-20T09:32:18;4.80;99.90
44833;DHT22;30569;51.252;9.830;2023-12-20T09:34:46;4.90;99.90
44833;DHT22;30569;51.252;9.830;2023-12-20T09:37:12;5.30;99.90
44833;DHT22;30569;51.252;9.830;2023-12-20T09:39:38;5.20;99.90
44833;DHT22;30569;51.252;9.830;2023-12-20T09:42:05;5.40;99.90
44833;DHT22;30569;51.252;9.830;2023-12-20T09:44:31;5.50;99.90
44833;DHT22;30569;51.252;9.830;2023-12-20T09:46:58;5.40;99.90
44833;DHT22;30569;51.252;9.830;2023-12-20T09:49:27;5.20;99.90
44833;DHT22;30569;51.252;9.830;2023-12-20T09:51:54;4.90;99.90
44833;DHT22;30569;51.252;9.830;2023-12-20T09:54:21;5.00;99.90
44833;DHT22;30569;51.252;9.830;2023-12-20T09:56:47;4.70;99.90
44833;DHT22;30569;51.252;9.830;2023-12-20T09:59:13;5.10;99.90
44833;DHT22;30569;51.252;9.830;2023-12-20T10:01:40;4.70;99.90
44833;DHT22;30569;51.252;9.830;2023-12-20T10:04:07;4.80;99.90
44833;DHT22;30569;51.252;9.830;2023-12-20T10:06:40;5.20;99.90
44833;DHT22;30569;51.252;9.830;2023-12-20T10:09:06;5.10;99.90
44833;DHT22;30569;51.252;9.830;2023-12-20T10:11:32;5.30;99.90
44833;DHT22;30569;51.252;9.830;2023-12-20T10:14:00;5.20;99.90
44833;DHT22;30569;51.252;9.830;2023-12-20T10:16:27;5.00;99.90
44833;DHT22;30569;51.252;9.830;2023-12-20T10:18:53;4.70;99.90
44833;DHT22;30569;51.252;9.830;2023-12-20T10:21:19;4.70;99.90
44833;DHT22;30569;51.252;9.830;2023-12-20T10:23:45;4.80;99.90
44833;DHT22;30569;51.252;9.830;2023-12-20T10:26:19;5.00;99.90
44833;DHT22;30569;51.252;9.830;2023-12-20T10:28:49;5.10;99.90
44833;DHT22;30569;51.252;9.830;2023-12-20T10:33:53;4.90;99.90
44833;DHT22;30569;51.252;9.830;2023-12-20T10:36:19;4.90;99.90
44833;DHT22;30569;51.252;9.830;2023-12-20T10:38:44;5.00;99.90
44833;DHT22;30569;51.252;9.830;2023-12-20T10:41:12;5.10;99.90
44833;DHT22;30569;51.252;9.830;2023-12-20T10:43:39;5.20;99.90
44833;DHT22;30569;51.252;9.830;2023-12-20T10:46:06;5.00;99.90
44833;DHT22;30569;51.252;9.830;2023-12-20T10:48:32;4.80;99.90
44833;DHT22;30569;51.252;9.830;2023-12-20T10:50:58;5.00;99.90
44833;DHT22;30569;51.252;9.830;2023-12-20T10:53:25;5.40;99.90
44833;DHT22;30569;51.252;9.830;2023-12-20T10:55:55;5.10;99.90
44833;DHT22;30569;51.252;9.830;2023-12-20T10:58:22;4.90;99.90
44833;DHT22;30569;51.252;9.830;2023-12-20T11:00:51;5.00;99.90
44833;DHT22;30569;51.252;9.830;2023-12-20T11:03:22;4.80;99.90
44833;DHT22;30569;51.252;9.830;2023-12-20T11:06:14;5.20;99.90
44833;DHT22;30569;51.252;9.830;2023-12-20T11:08:50;5.40;99.90
44833;DHT22;30569;51.252;9.830;2023-12-20T11:11:32;5.10;99.90
44833;DHT22;30569;51.252;9.830;2023-12-20T11:14:03;5.00;99.90
44833;DHT22;30569;51.252;9.830;2023-12-20T11:16:32;5.30;99.90
44833;DHT22;30569;51.252;9.830;2023-12-20T11:18:57;5.30;99.90
44833;DHT22;30569;51.252;9.830;2023-12-20T11:21:23;5.30;99.90
44833;DHT22;30569;51.252;9.830;2023-12-20T11:23:49;5.20;99.90
44833;DHT22;30569;51.252;9.830;2023-12-20T11:26:22;5.20;99.90
44833;DHT22;30569;51.252;9.830;2023-12-20T11:28:51;5.20;99.90
44833;DHT22;30569;51.252;9.830;2023-12-20T11:31:17;5.30;99.90
44833;DHT22;30569;51.252;9.830;2023-12-20T11:33:43;5.20;99.90
44833;DHT22;30569;51.252;9.830;2023-12-20T11:36:18;5.40;99.90
44833;DHT22;30569;51.252;9.830;2023-12-20T11:38:57;5.70;99.90
44833;DHT22;30569;51.252;9.830;2023-12-20T11:41:25;5.40;99.90
44833;DHT22;30569;51.252;9.830;2023-12-20T11:43:55;4.90;99.90
44833;DHT22;30569;51.252;9.830;2023-12-20T11:46:21;5.20;99.90
44833;DHT22;30569;51.252;9.830;2023-12-20T11:48:48;5.20;99.90
44833;DHT22;30569;51.252;9.830;2023-12-20T11:53:40;5.00;99.90
44833;DHT22;30569;51.252;9.830;2023-12-20T11:56:08;4.70;99.90
44833;DHT22;30569;51.252;9.830;2023-12-20T11:58:34;4.90;99.90
44833;DHT22;30569;51.252;9.830;2023-12-20T12:01:00;4.90;99.90
44833;DHT22;30569;51.252;9.830;2023-12-20T12:03:28;4.90;99.90
44833;DHT22;30569;51.252;9.830;2023-12-20T12:05:53;4.80;99.90
44833;DHT22;30569;51.252;9.830;2023-12-20T12:08:19;4.80;99.90
44833;DHT22;30569;51.252;9.830;2023-12-20T12:13:11;4.70;99.90
44833;DHT22;30569;51.252;9.830;2023-12-20T12:15:37;5.00;99.90
44833;DHT22;30569;51.252;9.830;2023-12-20T12:18:03;4.90;99.90
44833;DHT22;30569;51.252;9.830;2023-12-20T12:23:00;4.70;99.90
44833;DHT22;30569;51.252;9.830;2023-12-20T12:25:26;4.80;99.90
44833;DHT22;30569;51.252;9.830;2023-12-20T12:27:52;4.90;99.90
44833;DHT22;30569;51.252;9.830;2023-12-20T12:32:44;5.00;99.90
44833;DHT22;30569;51.252;9.830;2023-12-20T12:35:10;5.10;99.90
44833;DHT22;30569;51.252;9.830;2023-12-20T12:37:38;5.00;99.90
44833;DHT22;30569;51.252;9.830;2023-12-20T12:40:12;4.90;99.90
44833;DHT22;30569;51.252;9.830;2023-12-20T12:42:39;4.80;99.90
44833;DHT22;30569;51.252;9.830;2023-12-20T12:45:06;4.60;99.90
44833;DHT22;30569;51.252;9.830;2023-12-20T12:47:33;5.40;99.90
44833;DHT22;30569;51.252;9.830;2023-12-20T12:52:25;4.80;99.90
44833;DHT22;30569;51.252;9.830;2023-12-20T12:54:52;4.90;99.90
44833;DHT22;30569;51.252;9.830;2023-12-20T12:57:18;4.90;99.90
44833;DHT22;30569;51.252;9.830;2023-12-20T13:02:13;5.00;99.90
44833;DHT22;30569;51.252;9.830;2023-12-20T13:04:40;4.90;99.90
44833;DHT22;30569;51.252;9.830;2023-12-20T13:07:06;5.10;99.90
44833;DHT22;30569;51.252;9.830;2023-12-20T13:09:32;5.20;99.90
44833;DHT22;30569;51.252;9.830;2023-12-20T13:11:58;5.10;99.90
44833;DHT22;30569;51.252;9.830;2023-12-20T13:16:50;5.10;99.90
44833;DHT22;30569;51.252;9.830;2023-12-20T13:19:16;5.10;99.90
44833;DHT22;30569;51.252;9.830;2023-12-20T13:24:08;5.10;99.90
44833;DHT22;30569;51.252;9.830;2023-12-20T13:26:33;5.00;99.90
44833;DHT22;30569;51.252;9.830;2023-12-20T13:28:59;4.90;99.90
44833;DHT22;30569;51.252;9.830;2023-12-20T13:31:24;5.00;99.90
44833;DHT22;30569;51.252;9.830;2023-12-20T13:33:50;5.20;99.90
44833;DHT22;30569;51.252;9.830;2023-12-20T13:36:17;4.80;99.90
44833;DHT22;30569;51.252;9.830;2023-12-20T13:38:43;4.70;99.90
44833;DHT22;30569;51.252;9.830;2023-12-20T13:43:35;5.10;99.90
44833;DHT22;30569;51.252;9.830;2023-12-20T13:46:00;5.10;99.90
44833;DHT22;30569;51.252;9.830;2023-12-20T13:48:26;4.70;99.90
44833;DHT22;30569;51.252;9.830;2023-12-20T13:50:52;5.10;99.90
44833;DHT22;30569;51.252;9.830;2023-12-20T13:53:17;4.80;99.90
44833;DHT22;30569;51.252;9.830;2023-12-20T13:55:44;4.80;99.90
44833;DHT22;30569;51.252;9.830;2023-12-20T13:58:10;5.00;99.90
44833;DHT22;30569;51.252;9.830;2023-12-20T14:00:36;4.60;99.90
44833;DHT22;30569;51.252;9.830;2023-12-20T14:10:23;4.70;99.90
44833;DHT22;30569;51.252;9.830;2023-12-20T14:12:49;4.80;99.90
44833;DHT22;30569;51.252;9.830;2023-12-20T14:15:14;5.00;99.90
44833;DHT22;30569;51.252;9.830;2023-12-20T14:17:40;4.60;99.90
44833;DHT22;30569;51.252;9.830;2023-12-20T14:20:08;4.50;99.90
44833;DHT22;30569;51.252;9.830;2023-12-20T14:22:34;4.80;99.90
44833;DHT22;30569;51.252;9.830;2023-12-20T14:27:27;4.80;99.90
44833;DHT22;30569;51.252;9.830;2023-12-20T14:29:55;4.80;99.90
44833;DHT22;30569;51.252;9.830;2023-12-20T14:32:21;4.70;99.90
44833;DHT22;30569;51.252;9.830;2023-12-20T14:34:46;4.70;99.90
44833;DHT22;30569;51.252;9.830;2023-12-20T14:37:12;4.70;99.90
44833;DHT22;30569;51.252;9.830;2023-12-20T14:39:38;4.60;99.90
44833;DHT22;30569;51.252;9.830;2023-12-20T14:42:10;4.80;99.90
44833;DHT22;30569;51.252;9.830;2023-12-20T14:44:42;4.60;99.90
44833;DHT22;30569;51.252;9.830;2023-12-20T14:47:08;4.80;99.90
44833;DHT22;30569;51.252;9.830;2023-12-20T14:49:34;4.70;99.90
44833;DHT22;30569;51.252;9.830;2023-12-20T14:51:59;4.80;99.90
44833;DHT22;30569;51.252;9.830;2023-12-20T14:54:25;5.10;99.90
44833;DHT22;30569;51.252;9.830;2023-12-20T14:56:51;5.30;99.90
44833;DHT22;30569;51.252;9.830;2023-12-20T14:59:17;5.10;99.90
44833;DHT22;30569;51.252;9.830;2023-12-20T15:01:43;4.90;99.90
44833;DHT22;30569;51.252;9.830;2023-12-20T15:04:10;4.70;99.90
44833;DHT22;30569;51.252;9.830;2023-12-20T15:09:01;4.80;99.90
44833;DHT22;30569;51.252;9.830;2023-12-20T15:11:31;5.00;99.90
44833;DHT22;30569;51.252;9.830;2023-12-20T15:13:56;5.00;99.90
44833;DHT22;30569;51.252;9.830;2023-12-20T15:16:23;4.50;99.90
44833;DHT22;30569;51.252;9.830;2023-12-20T15:18:49;4.60;99.90
44833;DHT22;30569;51.252;9.830;2023-12-20T15:21:16;4.60;99.90
44833;DHT22;30569;51.252;9.830;2023-12-20T15:28:56;4.80;99.90
44833;DHT22;30569;51.252;9.830;2023-12-20T15:31:22;4.50;99.90
44833;DHT22;30569;51.252;9.830;2023-12-20T15:33:51;4.60;99.90
44833;DHT22;30569;51.252;9.830;2023-12-20T15:36:17;4.60;99.90
44833;DHT22;30569;51.252;9.830;2023-12-20T15:46:02;4.90;99.90
44833;DHT22;30569;51.252;9.830;2023-12-20T15:50:56;4.90;99.90
44833;DHT22;30569;51.252;9.830;2023-12-20T15:58:14;4.80;99.90
44833;DHT22;30569;51.252;9.830;2023-12-20T16:00:39;4.80;99.90
44833;DHT22;30569;51.252;9.830;2023-12-20T16:05:31;4.60;99.90
44833;DHT22;30569;51.252;9.830;2023-12-20T16:10:23;4.80;99.90
44833;DHT22;30569;51.252;9.830;2023-12-20T16:15:14;4.50;99.90
44833;DHT22;30569;51.252;9.830;2023-12-20T16:17:40;4.70;99.90
44833;DHT22;30569;51.252;9.830;2023-12-20T16:20:06;4.50;99.90
44833;DHT22;30569;51.252;9.830;2023-12-20T16:22:32;4.50;99.90
44833;DHT22;30569;51.252;9.830;2023-12-20T16:24:58;4.60;99.90
44833;DHT22;30569;51.252;9.830;2023-12-20T16:27:23;4.80;99.90
44833;DHT22;30569;51.252;9.830;2023-12-20T16:29:49;5.10;99.90
44833;DHT22;30569;51.252;9.830;2023-12-20T16:32:14;5.00;99.90
44833;DHT22;30569;51.252;9.830;2023-12-20T16:34:40;4.80;99.90
44833;DHT22;30569;51.252;9.830;2023-12-20T16:37:06;4.60;99.90
44833;DHT22;30569;51.252;9.830;2023-12-20T16:39:31;4.50;99.90
44833;DHT22;30569;51.252;9.830;2023-12-20T16:41:57;4.80;99.90
44833;DHT22;30569;51.252;9.830;2023-12-20T16:49:14;4.70;99.90
44833;DHT22;30569;51.252;9.830;2023-12-20T16:51:40;4.70;99.90
44833;DHT22;30569;51.252;9.830;2023-12-20T16:54:06;4.90;99.90
44833;DHT22;30569;51.252;9.830;2023-12-20T16:56:31;4.50;99.90
44833;DHT22;30569;51.252;9.830;2023-12-20T16:58:57;4.60;99.90
44833;DHT22;30569;51.252;9.830;2023-12-20T17:01:23;5.00;99.90
44833;DHT22;30569;51.252;9.830;2023-12-20T17:03:51;4.60;99.90
44833;DHT22;30569;51.252;9.830;2023-12-20T17:08:43;5.10;99.90
44833;DHT22;30569;51.252;9.830;2023-12-20T17:11:09;4.50;99.90
44833;DHT22;30569;51.252;9.830;2023-12-20T17:13:35;4.70;99.90
44833;DHT22;30569;51.252;9.830;2023-12-20T17:16:00;5.00;99.90
44833;DHT22;30569;51.252;9.830;2023-12-20T17:18:26;4.60;99.90
44833;DHT22;30569;51.252;9.830;2023-12-20T17:20:52;5.90;99.90
44833;DHT22;30569;51.252;9.830;2023-12-20T17:23:17;4.50;99.90
44833;DHT22;30569;51.252;9.830;2023-12-20T17:25:43;4.60;99.90
44833;DHT22;30569;51.252;9.830;2023-12-20T17:30:35;4.70;99.90
44833;DHT22;30569;51.252;9.830;2023-12-20T17:33:01;4.60;99.90
44833;DHT22;30569;51.252;9.830;2023-12-20T17:35:27;4.50;99.90
44833;DHT22;30569;51.252;9.830;2023-12-20T17:37:52;5.00;99.90
44833;DHT22;30569;51.252;9.830;2023-12-20T17:40:18;4.50;99.90
44833;DHT22;30569;51.252;9.830;2023-12-20T17:45:11;4.40;99.90
44833;DHT22;30569;51.252;9.830;2023-12-20T17:52:29;4.60;99.90
44833;DHT22;30569;51.252;9.830;2023-12-20T17:54:55;4.70;99.90
44833;DHT22;30569;51.252;9.830;2023-12-20T17:57:20;4.40;99.90
44833;DHT22;30569;51.252;9.830;2023-12-20T17:59:52;4.40;99.90
44833;DHT22;30569;51.252;9.830;2023-12-20T18:02:17;4.30;99.90
44833;DHT22;30569;51.252;9.830;2023-12-20T18:04:44;4.50;99.90
44833;DHT22;30569;51.252;9.830;2023-12-20T18:07:11;4.50;99.90
44833;DHT22;30569;51.252;9.830;2023-12-20T18:09:36;4.60;99.90
44833;DHT22;30569;51.252;9.830;2023-12-20T18:12:02;4.60;99.90
44833;DHT22;30569;51.252;9.830;2023-12-20T18:14:28;4.80;99.90
44833;DHT22;30569;51.252;9.830;2023-12-20T18:19:21;4.50;99.90